SV1QT-2 Athens GR current weather conditions

sailwx.info

Wind from 021 at 5 knots gusting 6

Air temperature 20.6° C
Dewpoint 7.2° C

Last reported at 2018-Apr-19 17:35 UTC.
Time now 2018-Apr-20 07:00 UTC

Location: N 37°57' E 023°45'.
View on Google Maps.

See reports from other nearby stations

  
Tides and Currents Weather Stations Pressure Air Temp Water Temp Dewpoint Dewpoint Depression Visibility Wind Speed Wind Dir Waves Ship Positions
date/time (UTC)wind fromknots sea level pressurealtimeterstation pressurevisibilityair tempwater tempwave heightnotes
2018-Apr-19 17:35 021 5 gusting 6 20.6
2018-Apr-19 17:30 024 5 gusting 6 20.6
2018-Apr-19 17:25 040 5 gusting 6 20.6
2018-Apr-19 17:20 032 6 gusting 6 20.6
2018-Apr-19 17:15 012 5 gusting 6 20.6
2018-Apr-19 17:10 013 5 gusting 7 20.6
2018-Apr-19 17:05 021 4 gusting 7 20.6
2018-Apr-19 17:00 343 4 gusting 6 21.1
2018-Apr-19 16:55 324 4 gusting 5 21.1
2018-Apr-19 16:50 353 3 gusting 6 21.1
2018-Apr-19 16:45 007 5 gusting 9 21.7
2018-Apr-19 16:40 012 5 gusting 9 21.7
2018-Apr-19 16:35 022 5 gusting 9 21.7
2018-Apr-19 16:30 023 6 gusting 13 21.7
2018-Apr-19 16:25 030 10 gusting 15 21.7
2018-Apr-19 16:20 032 8 gusting 15 21.7
2018-Apr-19 16:15 027 7 gusting 11 21.7
2018-Apr-19 16:10 021 7 gusting 11 21.7
2018-Apr-19 16:05 017 7 gusting 8 22.2
2018-Apr-19 16:00 023 7 gusting 7 22.2
2018-Apr-19 15:55 019 6 gusting 8 22.2
2018-Apr-19 15:50 355 6 gusting 8 22.2
2018-Apr-19 15:45 334 6 gusting 7 22.2
2018-Apr-19 15:40 002 6 gusting 9 22.8
2018-Apr-19 15:35 031 9 gusting 15 22.8
2018-Apr-19 15:30 025 12 gusting 15 22.8
2018-Apr-19 15:25 019 12 gusting 15 22.8
2018-Apr-19 15:20 018 10 gusting 10 23.3
2018-Apr-19 15:15 022 7 gusting 10 23.3
2018-Apr-19 15:10 034 6 gusting 6 22.8
2018-Apr-19 15:05 037 6 gusting 8 23.3
2018-Apr-19 15:00 034 9 gusting 14 22.8
2018-Apr-19 14:55 027 10 gusting 14 23.3
2018-Apr-19 14:50 022 7 gusting 12 22.8
2018-Apr-19 14:45 029 8 gusting 12 23.3
2018-Apr-19 14:40 027 11 gusting 12 23.3
2018-Apr-19 14:35 027 9 gusting 11 22.8
2018-Apr-19 14:30 029 9 gusting 12 22.8
2018-Apr-19 14:25 024 12 gusting 16 23.3
2018-Apr-19 14:20 023 16 gusting 16 23.3
2018-Apr-18 16:58 21.7
2018-Apr-18 16:55 21.7
2018-Apr-18 16:50 21.7
2018-Apr-18 16:45 22.2
2018-Apr-18 16:40 22.2
2018-Apr-18 16:35 22.8
2018-Apr-18 16:30 22.8
2018-Apr-18 16:25 22.8
2018-Apr-18 16:20 23.3
2018-Apr-18 16:15 23.3
2018-Apr-18 16:10 23.3
2018-Apr-18 16:05 23.9
2018-Apr-18 16:00 23.9
2018-Apr-18 15:55 23.9
2018-Apr-18 14:59 22.2
2018-Apr-18 14:55 247 22.2
2018-Apr-18 14:50 240 0 gusting 2 22.8
2018-Apr-18 14:45 230 1 gusting 2 23.3
2018-Apr-18 14:40 225 1 gusting 2 23.3
2018-Apr-18 14:35 241 1 gusting 4 23.3
2018-Apr-18 14:30 245 1 gusting 4 23.3
2018-Apr-18 14:25 245 2 gusting 4 23.3
2018-Apr-18 14:20 244 3 gusting 5 23.3
2018-Apr-18 14:15 243 4 gusting 5 23.9
2018-Apr-18 14:10 230 5 gusting 6 23.9
2018-Apr-18 14:05 209 6 gusting 6 23.9
2018-Apr-18 14:00 202 6 gusting 6 23.3
2018-Apr-18 13:55 209 4 gusting 6 23.3
2018-Apr-18 13:50 237 1 gusting 6 23.3
2018-Apr-18 13:45 250 3 gusting 4 23.3
2018-Apr-18 13:40 247 2 gusting 4 24.4
2018-Apr-18 13:35 247 24.4
2018-Apr-18 13:30 247 0 gusting 3 24.4
2018-Apr-18 13:25 235 1 gusting 3 24.4
2018-Apr-18 13:20 240 1 gusting 4 24.4
2018-Apr-18 13:15 246 3 gusting 4 24.4
2018-Apr-18 13:10 238 3 gusting 4 24.4
2018-Apr-18 13:05 227 2 gusting 3 25.0